Time;durP1;ratioP1;P1;durP2;ratioP2;P2;SDS_P1;SDS_P2;PMS_P1;PMS_P2;Temp;Humidity;BMP_temperature;BMP_pressure;BME280_temperature;BME280_humidity;BME280_pressure;Samples;Min_cycle;Max_cycle;Signal;HPM_P1;HPM_P2
2021/05/18 00:00:07;;;;;;;40.08;16.10;;;;;;;8.77;85.76;99456.00;5106607;28;20032;-62
2021/05/18 00:02:32;;;;;;;39.50;18.17;;;;;;;8.78;85.75;99462.03;5106272;28;20023;-62
2021/05/18 00:04:58;;;;;;;40.83;17.48;;;;;;;8.76;85.71;99462.06;5106521;28;20043;-62
2021/05/18 00:07:23;;;;;;;32.92;17.00;;;;;;;8.77;85.60;99458.59;5106374;28;20050;-61
2021/05/18 00:12:35;;;;;;;39.75;16.63;;;;;;;8.73;85.81;99459.53;5106260;28;20065;-61
2021/05/18 00:15:03;;;;;;;45.67;19.67;;;;;;;8.75;86.03;99462.09;5106255;28;20087;-63
2021/05/18 00:17:28;;;;;;;44.80;20.02;;;;;;;8.76;86.02;99463.78;5106117;28;20114;-63
2021/05/18 00:19:54;;;;;;;44.33;20.85;;;;;;;8.74;86.27;99466.41;5106636;28;20052;-61
2021/05/18 00:22:20;;;;;;;49.10;20.52;;;;;;;8.72;86.39;99459.56;5106001;28;20031;-61
2021/05/18 00:24:45;;;;;;;54.25;22.85;;;;;;;8.77;86.56;99466.34;5104792;28;20047;-62
2021/05/18 00:27:10;;;;;;;53.65;22.27;;;;;;;8.79;86.56;99464.59;5105979;28;20032;-62
2021/05/18 00:29:36;;;;;;;51.65;23.05;;;;;;;8.88;87.31;99467.94;5106141;28;20020;-62
2021/05/18 00:32:01;;;;;;;48.30;21.25;;;;;;;8.92;87.40;99465.25;5105643;28;20032;-61
2021/05/18 00:34:26;;;;;;;34.65;18.52;;;;;;;9.02;87.63;99467.69;5105864;28;20020;-62
2021/05/18 00:36:52;;;;;;;38.45;19.75;;;;;;;9.09;87.88;99458.09;5105877;28;20020;-62
2021/05/18 00:39:18;;;;;;;44.97;20.92;;;;;;;9.13;87.60;99468.38;5105878;28;20027;-63
2021/05/18 00:41:46;;;;;;;35.63;19.17;;;;;;;9.16;87.64;99472.63;5105658;28;20027;-62
2021/05/18 00:44:11;;;;;;;34.65;19.05;;;;;;;9.17;87.44;99474.31;5104663;28;20027;-62
2021/05/18 00:46:37;;;;;;;45.80;19.55;;;;;;;9.14;87.64;99466.59;5105558;28;20024;-62
2021/05/18 00:49:03;;;;;;;38.83;19.83;;;;;;;9.15;87.47;99466.56;5105658;28;20020;-62
2021/05/18 00:51:30;;;;;;;38.70;18.80;;;;;;;9.10;87.24;99473.59;5105206;28;20358;-62
2021/05/18 00:53:58;;;;;;;33.60;17.63;;;;;;;9.08;87.16;99477.06;5105459;28;20035;-63
2021/05/18 00:59:05;;;;;;;41.40;19.50;;;;;;;8.96;87.02;99478.16;5105696;28;20040;-62
2021/05/18 01:01:32;;;;;;;33.75;18.83;;;;;;;8.90;87.03;99482.53;5105114;28;20023;-63
2021/05/18 01:04:02;;;;;;;38.45;19.75;;;;;;;8.86;86.98;99480.03;5105310;28;20026;-62
2021/05/18 01:06:29;;;;;;;35.05;16.98;;;;;;;8.83;87.07;99487.84;5105400;28;20024;-62
2021/05/18 01:09:00;;;;;;;42.60;20.25;;;;;;;8.80;87.37;99488.75;5105313;28;20054;-63
2021/05/18 01:11:28;;;;;;;42.42;21.90;;;;;;;8.81;87.10;99487.88;5105345;28;20067;-63
2021/05/18 01:13:58;;;;;;;43.28;20.60;;;;;;;8.78;87.15;99490.50;5105103;28;20024;-63
2021/05/18 01:16:24;;;;;;;42.75;21.73;;;;;;;8.82;87.19;99491.31;5105042;28;20022;-63
2021/05/18 01:18:50;;;;;;;48.63;23.60;;;;;;;8.84;87.59;99492.13;5105069;28;20031;-63
2021/05/18 01:21:16;;;;;;;50.25;24.13;;;;;;;8.90;87.59;99497.22;5103639;28;20028;-62
2021/05/18 01:23:42;;;;;;;49.03;24.92;;;;;;;8.92;87.89;99498.91;5105020;28;20048;-63
2021/05/18 01:26:09;;;;;;;47.65;22.83;;;;;;;9.00;87.81;99506.56;5104952;28;20024;-63
2021/05/18 01:28:35;;;;;;;41.65;21.38;;;;;;;9.07;87.85;99504.72;5104762;28;20032;-63
2021/05/18 01:31:01;;;;;;;46.65;21.50;;;;;;;9.11;87.81;99511.53;5104760;28;20016;-63
2021/05/18 01:33:27;;;;;;;35.42;19.80;;;;;;;9.14;87.60;99514.09;5104623;28;20327;-63
2021/05/18 01:35:54;;;;;;;37.67;20.13;;;;;;;9.20;87.65;99509.69;5104812;28;20058;-63
2021/05/18 01:38:24;;;;;;;41.78;21.20;;;;;;;9.25;87.34;99513.06;5104419;28;20065;-60
2021/05/18 01:43:34;;;;;;;37.65;21.17;;;;;;;9.30;87.28;99511.22;5104510;28;20100;-62
2021/05/18 01:45:59;;;;;;;39.55;20.95;;;;;;;9.25;87.17;99507.88;5104308;28;20065;-61
2021/05/18 01:48:25;;;;;;;39.83;21.52;;;;;;;9.27;87.36;99506.09;5104469;28;20452;-61
2021/05/18 01:50:51;;;;;;;32.83;17.05;;;;;;;9.29;87.27;99520.75;5104304;28;20016;-61
2021/05/18 01:53:18;;;;;;;37.83;18.98;;;;;;;9.29;87.50;99519.88;5104249;28;20028;-63
2021/05/18 01:58:10;;;;;;;25.15;13.75;;;;;;;9.26;87.28;99525.13;5104439;28;20081;-63
2021/05/18 02:00:39;;;;;;;27.58;14.57;;;;;;;9.21;87.23;99521.75;5104419;28;20064;-62
2021/05/18 02:03:05;;;;;;;28.10;15.02;;;;;;;9.18;87.09;99523.50;5103748;28;20034;-62
2021/05/18 02:05:34;;;;;;;24.85;13.82;;;;;;;9.22;87.23;99526.06;5104358;28;20020;-62
2021/05/18 02:08:01;;;;;;;24.50;14.23;;;;;;;9.23;87.10;99530.34;5104331;28;20036;-62
2021/05/18 02:10:27;;;;;;;21.67;13.82;;;;;;;9.24;86.98;99530.31;5104207;28;20338;-62
2021/05/18 02:12:54;;;;;;;19.85;13.30;;;;;;;9.24;87.04;99534.63;5103956;28;20040;-63
2021/05/18 02:18:12;;;;;;;23.60;13.93;;;;;;;9.26;87.00;99540.66;5103923;28;20020;-62
2021/05/18 02:20:41;;;;;;;18.63;11.77;;;;;;;9.30;87.02;99542.31;5103923;28;20119;-62
2021/05/18 02:25:57;;;;;;;20.83;12.45;;;;;;;9.37;86.79;99551.69;5095177;28;20520;-62
2021/05/18 02:28:23;;;;;;;16.63;10.40;;;;;;;9.39;86.54;99549.91;5103847;28;20053;-63
2021/05/18 02:30:49;;;;;;;19.33;11.57;;;;;;;9.41;86.65;99550.75;5103757;28;20058;-62
2021/05/18 02:33:16;;;;;;;16.08;10.57;;;;;;;9.41;86.66;99547.28;5103538;28;20044;-62
2021/05/18 02:35:41;;;;;;;16.75;10.55;;;;;;;9.47;86.66;99548.94;5103623;28;20024;-63
2021/05/18 02:38:07;;;;;;;18.60;9.95;;;;;;;9.50;86.62;99549.75;5103810;28;20031;-62
2021/05/18 02:40:35;;;;;;;14.73;8.55;;;;;;;9.51;86.36;99550.59;5103784;28;20054;-63
2021/05/18 02:43:00;;;;;;;14.18;7.80;;;;;;;9.58;86.35;99548.75;5103732;28;20024;-62
2021/05/18 02:50:39;;;;;;;13.27;7.90;;;;;;;9.63;86.21;99557.28;5103511;28;20714;-63
2021/05/18 02:53:04;;;;;;;10.77;8.05;;;;;;;9.69;86.08;99564.09;5103385;28;20052;-63
2021/05/18 02:55:48;;;;;;;10.00;7.47;;;;;;;9.66;85.96;99550.31;5103649;28;20056;-63
2021/05/18 02:58:14;;;;;;;11.23;7.70;;;;;;;9.65;86.13;99564.16;5103571;28;20044;-63
2021/05/18 03:00:40;;;;;;;11.30;6.95;;;;;;;9.69;85.86;99561.50;5103465;28;20028;-63
2021/05/18 03:03:06;;;;;;;8.05;6.43;;;;;;;9.62;85.91;99559.03;5102955;28;20344;-63
2021/05/18 03:05:31;;;;;;;11.63;6.78;;;;;;;9.60;85.67;99555.59;5103532;28;20476;-63
2021/05/18 03:07:57;;;;;;;8.18;5.53;;;;;;;9.62;85.50;99565.94;5107328;28;20031;-63
2021/05/18 03:10:22;;;;;;;6.70;4.80;;;;;;;9.61;85.54;99554.72;5107579;28;20024;-62
2021/05/18 03:12:48;;;;;;;8.13;4.88;;;;;;;9.67;85.50;99571.91;5107467;28;20024;-63
2021/05/18 03:15:15;;;;;;;6.53;4.05;;;;;;;9.69;85.57;99564.97;5107412;28;20027;-62
2021/05/18 03:17:41;;;;;;;7.18;4.07;;;;;;;9.70;85.34;99563.19;5107282;28;20024;-63
2021/05/18 03:20:10;;;;;;;5.30;4.10;;;;;;;9.75;85.07;99571.75;5107305;28;20027;-63
2021/05/18 03:22:35;;;;;;;7.30;3.78;;;;;;;9.70;84.81;99563.19;5107050;28;20095;-62
2021/05/18 03:25:01;;;;;;;5.25;3.95;;;;;;;9.74;84.92;99573.50;5107139;28;20024;-62
2021/05/18 03:27:28;;;;;;;7.25;3.47;;;;;;;9.76;84.52;99570.88;5107215;28;20031;-62
2021/05/18 03:29:55;;;;;;;5.80;3.28;;;;;;;9.76;84.37;99569.13;5107301;28;20035;-63
2021/05/18 03:35:05;;;;;;;5.00;3.00;;;;;;;9.86;84.15;99575.00;5107194;28;20031;-63
2021/05/18 03:38:16;;;;;;;5.68;3.35;;;;;;;9.86;83.97;99579.31;5107082;28;20028;-63
2021/05/18 03:40:21;;;;;;;4.28;2.70;;;;;;;9.88;83.59;99583.63;5106453;28;20388;-63
2021/05/18 03:42:52;;;;;;;8.02;2.95;;;;;;;9.82;83.47;99570.78;5107053;28;20051;-63
2021/05/18 04:04:18;;;;;;;3.10;2.30;;;;;;;10.55;83.99;99597.03;5103740;28;20475;-63
2021/05/18 04:18:17;;;;;;;6.18;2.83;;;;;;;11.74;80.95;99608.09;5103058;28;20026;-65
2021/05/18 05:02:07;;;;;;;7.35;5.50;;;;;;;11.23;79.10;99631.00;4983490;28;20439;-64
2021/05/18 05:04:23;;;;;;;9.80;6.20;;;;;;;11.29;78.80;99627.41;4982971;28;20534;-63
2021/05/18 05:09:32;;;;;;;10.20;5.75;;;;;;;11.35;79.37;99639.41;4983298;28;20050;-64
2021/05/18 05:14:42;;;;;;;7.25;5.38;;;;;;;11.50;79.57;99644.22;4983167;28;20459;-65
2021/05/18 05:17:07;;;;;;;10.05;6.25;;;;;;;11.68;80.04;99646.41;4983090;28;20547;-65
2021/05/18 05:19:33;;;;;;;9.27;6.47;;;;;;;11.87;79.23;99641.56;4983409;28;20043;-64
2021/05/18 05:22:00;;;;;;;8.15;5.63;;;;;;;12.03;79.52;99639.41;4983019;28;20041;-63
2021/05/18 05:24:25;;;;;;;8.48;5.95;;;;;;;12.25;79.47;99641.47;4983040;28;20038;-61
2021/05/18 05:26:52;;;;;;;7.47;5.60;;;;;;;12.36;78.88;99642.00;4983009;28;20039;-63
2021/05/18 05:29:18;;;;;;;7.93;5.38;;;;;;;12.39;78.39;99651.50;4982186;28;20038;-63
2021/05/18 05:31:44;;;;;;;8.85;6.15;;;;;;;12.31;77.85;99648.25;4982639;28;20031;-60
2021/05/18 05:34:10;;;;;;;11.25;6.35;;;;;;;12.24;77.83;99647.56;5041373;28;20103;-63
2021/05/18 05:36:37;;;;;;;10.82;6.88;;;;;;;12.18;77.70;99661.59;5094722;28;20095;-64
2021/05/18 05:39:09;;;;;;;10.82;7.10;;;;;;;12.14;77.61;99660.81;5104577;28;20107;-63
2021/05/18 05:41:34;;;;;;;14.50;7.57;;;;;;;12.10;77.66;99658.34;5104407;28;20505;-62
2021/05/18 05:44:00;;;;;;;9.85;6.60;;;;;;;12.10;77.59;99663.56;5104160;28;20079;-62
2021/05/18 05:46:25;;;;;;;13.27;8.55;;;;;;;12.07;77.15;99663.59;5104048;28;20472;-62
2021/05/18 05:48:54;;;;;;;9.70;7.38;;;;;;;12.03;77.11;99668.03;5104135;28;20032;-62
2021/05/18 05:51:24;;;;;;;10.40;7.20;;;;;;;11.93;76.71;99666.56;5104132;28;20365;-62
2021/05/18 05:53:51;;;;;;;12.35;7.68;;;;;;;11.84;77.10;99668.50;5104173;28;20031;-62
2021/05/18 05:56:17;;;;;;;9.35;7.43;;;;;;;11.83;77.20;99672.03;5120016;28;20016;-61
2021/05/18 05:58:43;;;;;;;13.00;7.50;;;;;;;11.82;77.19;99674.66;5104284;28;20605;-62
2021/05/18 06:01:09;;;;;;;10.35;7.35;;;;;;;11.78;76.87;99674.75;5104040;28;20050;-62
2021/05/18 06:03:34;;;;;;;12.10;8.13;;;;;;;11.80;77.00;99676.44;5119714;28;20020;-62
2021/05/18 06:06:00;;;;;;;12.25;8.30;;;;;;;11.82;76.81;99680.69;5104039;28;20325;-62
2021/05/18 06:08:26;;;;;;;11.10;7.35;;;;;;;11.80;76.53;99679.91;5103787;28;20073;-62
2021/05/18 06:10:57;;;;;;;9.13;7.28;;;;;;;11.90;76.53;99678.75;5103984;28;20027;-62
2021/05/18 06:43:17;;;;;;;12.50;9.00;;;;;;;11.50;74.98;99703.16;5100729;28;20066;-62
2021/05/18 06:46:08;;;;;;;11.40;7.28;;;;;;;11.53;75.22;99716.09;5101053;28;20093;-63
2021/05/18 06:48:34;;;;;;;9.93;6.95;;;;;;;11.61;74.59;99708.94;5100821;28;20078;-63
2021/05/18 06:50:59;;;;;;;10.45;7.28;;;;;;;11.63;74.91;99717.56;5100439;28;20172;-63
2021/05/18 06:53:25;;;;;;;9.50;6.53;;;;;;;11.73;74.40;99720.81;5100715;28;20094;-63
2021/05/18 06:55:52;;;;;;;9.35;6.07;;;;;;;11.81;73.71;99717.16;5100877;28;20020;-63
2021/05/18 07:00:06;;;;;;;9.20;6.05;;;;;;;11.94;73.26;99722.91;5101980;28;20040;-63
2021/05/18 07:01:19;;;;;;;9.25;5.63;;;;;;;12.23;73.27;99723.94;5103003;28;20024;-63
2021/05/18 07:03:48;;;;;;;8.27;5.63;;;;;;;12.50;71.85;99724.94;5103645;28;20027;-62
2021/05/18 07:08:58;;;;;;;7.43;4.90;;;;;;;13.11;71.63;99725.84;5103231;28;20104;-63
2021/05/18 07:11:24;;;;;;;7.57;5.30;;;;;;;13.53;70.94;99728.94;5102927;28;20120;-63
2021/05/18 07:13:50;;;;;;;8.43;5.40;;;;;;;13.71;68.40;99732.72;5103049;28;20088;-63
2021/05/18 07:16:16;;;;;;;7.03;5.38;;;;;;;13.73;66.95;99730.91;5102879;28;20043;-63
2021/05/18 07:18:41;;;;;;;7.43;5.07;;;;;;;13.65;68.09;99735.53;5103058;28;20024;-63
2021/05/18 07:21:07;;;;;;;6.35;4.93;;;;;;;13.61;67.53;99741.75;5102927;28;20016;-63
2021/05/18 07:23:33;;;;;;;7.07;4.90;;;;;;;13.80;67.37;99739.38;5103131;28;20515;-63
2021/05/18 07:25:58;;;;;;;7.15;3.90;;;;;;;14.61;68.92;99751.47;5103047;28;20114;-63
2021/05/18 07:28:29;;;;;;;5.88;4.50;;;;;;;15.45;64.70;99742.28;5103128;28;20031;-63
2021/05/18 07:30:55;;;;;;;7.60;4.47;;;;;;;15.81;62.52;99746.97;5102932;28;20020;-63
2021/05/18 07:33:20;;;;;;;8.48;4.72;;;;;;;15.90;60.94;99747.50;5102191;28;20123;-63
2021/05/18 07:35:46;;;;;;;7.88;5.20;;;;;;;15.62;58.75;99746.88;5102501;28;20027;-63
2021/05/18 07:38:12;;;;;;;5.75;4.18;;;;;;;15.34;60.42;99738.34;5102412;28;20024;-63
2021/05/18 07:40:37;;;;;;;6.53;4.20;;;;;;;15.35;60.53;99744.44;5101439;28;20032;-63
2021/05/18 07:43:04;;;;;;;6.68;3.92;;;;;;;15.32;58.48;99748.00;5102613;28;20035;-63
2021/05/18 07:45:31;;;;;;;6.35;4.78;;;;;;;15.00;58.45;99747.47;5102930;28;20050;-63
2021/05/18 07:48:21;;;;;;;5.75;3.78;;;;;;;14.76;59.91;99757.88;5102469;28;20052;-63
2021/05/18 07:51:00;;;;;;;5.47;4.28;;;;;;;14.54;58.49;99752.56;5102655;28;20070;-63
2021/05/18 08:07:05;;;;;;;10.43;4.80;;;;;;;14.63;57.40;99765.34;5106335;28;20034;-63
2021/05/18 08:09:34;;;;;;;6.90;5.35;;;;;;;14.33;57.56;99758.50;5106034;28;20652;-63
2021/05/18 08:11:59;;;;;;;9.13;5.57;;;;;;;14.08;58.53;99767.19;5105946;28;20071;-63
2021/05/18 08:14:26;;;;;;;7.38;5.13;;;;;;;13.91;59.37;99766.88;5105809;28;20040;-63
2021/05/18 08:17:38;;;;;;;9.55;6.03;;;;;;;13.82;59.31;99762.81;5105654;28;20504;-63
2021/05/18 08:55:35;;;;;;;9.10;6.65;;;;;;;15.59;56.82;99773.16;5105456;28;20032;-63
2021/05/18 10:36:01;;;;;;;4.95;3.72;;;;;;;17.51;46.72;99817.44;5103812;28;20036;-63
2021/05/18 10:38:34;;;;;;;10.20;4.00;;;;;;;18.36;45.86;99809.00;5103944;28;20024;-63
2021/05/18 10:41:05;;;;;;;6.57;4.05;;;;;;;19.00;44.87;99812.78;5103902;28;20047;-63
2021/05/18 10:43:30;;;;;;;5.27;3.87;;;;;;;19.09;44.05;99812.31;5103733;28;20068;-64
2021/05/18 10:45:56;;;;;;;6.68;3.90;;;;;;;19.16;43.68;99823.34;5103882;28;20035;-64
2021/05/18 10:48:25;;;;;;;5.65;3.92;;;;;;;19.54;43.86;99816.91;5103574;28;20043;-63
2021/05/18 10:50:51;;;;;;;5.32;3.75;;;;;;;19.81;43.63;99813.66;5103530;28;20098;-63
2021/05/18 10:53:27;;;;;;;4.85;3.33;;;;;;;19.51;42.21;99815.31;5103544;28;20078;-63
2021/05/18 10:56:09;;;;;;;6.82;3.10;;;;;;;18.98;42.97;99823.38;5119456;28;20043;-63
2021/05/18 10:58:35;;;;;;;4.75;3.20;;;;;;;18.60;44.01;99807.81;5103656;28;20020;-63
2021/05/18 11:01:02;;;;;;;6.15;3.55;;;;;;;18.28;44.48;99817.28;5103574;28;20475;-65
2021/05/18 11:03:27;;;;;;;6.53;3.75;;;;;;;17.93;44.08;99822.47;5103194;28;20119;-63
2021/05/18 11:05:53;;;;;;;4.32;3.08;;;;;;;17.47;45.44;99829.00;5103654;28;20020;-62
2021/05/18 11:08:19;;;;;;;4.30;3.00;;;;;;;17.19;45.69;99832.88;5118866;28;20031;-63
2021/05/18 11:10:46;;;;;;;4.72;3.47;;;;;;;17.01;46.68;99834.53;5103402;28;20040;-62
2021/05/18 11:13:12;;;;;;;4.20;3.20;;;;;;;16.84;47.22;99839.63;5103194;28;20024;-63
2021/05/18 11:15:37;;;;;;;4.68;3.33;;;;;;;16.70;46.79;99834.97;5103381;28;20064;-63
2021/05/18 11:18:05;;;;;;;5.35;2.97;;;;;;;16.53;47.67;99840.94;5103397;28;20024;-63
2021/05/18 11:23:24;;;;;;;3.22;2.88;;;;;;;16.58;47.86;99838.97;5103453;28;20024;-63
2021/05/18 11:26:08;;;;;;;6.72;3.28;;;;;;;16.52;47.77;99846.25;5118997;28;20028;-63
2021/05/18 11:28:45;;;;;;;4.38;3.22;;;;;;;16.39;47.76;99843.31;5106462;28;20028;-63
2021/05/18 11:31:17;;;;;;;6.72;3.47;;;;;;;16.26;48.76;99835.97;5107464;28;20141;-64
2021/05/18 11:33:46;;;;;;;;;;;;;;;16.14;48.93;99839.06;5106060;28;20016;-63
2021/05/18 11:36:15;;;;;;;4.70;3.25;;;;;;;15.92;49.68;99843.38;5107174;28;19907;-64
2021/05/18 11:38:49;;;;;;;6.05;3.70;;;;;;;15.85;50.35;99844.53;5107006;28;20059;-65
2021/05/18 11:41:24;;;;;;;5.05;3.63;;;;;;;15.79;50.35;99856.09;5107084;28;20016;-64
2021/05/18 11:43:51;;;;;;;4.85;3.00;;;;;;;15.66;50.44;99844.38;5106820;28;20036;-64
2021/05/18 11:46:16;;;;;;;5.53;3.50;;;;;;;15.62;50.83;99841.06;5106876;28;20039;-63
2021/05/18 11:48:52;;;;;;;4.78;3.10;;;;;;;15.50;51.33;99847.59;5106596;28;20024;-63
2021/05/18 11:51:17;;;;;;;4.05;3.28;;;;;;;15.29;51.86;99851.91;5106613;28;20381;-63
2021/05/18 11:53:45;;;;;;;5.47;3.70;;;;;;;15.07;52.69;99853.53;5106709;28;20479;-64
2021/05/18 11:56:31;;;;;;;4.30;3.17;;;;;;;14.86;53.45;99856.00;5106864;28;20050;-63
2021/05/18 11:59:00;;;;;;;5.82;3.47;;;;;;;14.82;53.68;99848.31;5106692;28;20035;-63
2021/05/18 12:01:25;;;;;;;4.13;3.42;;;;;;;14.73;54.17;99849.44;5106592;28;20503;-63
2021/05/18 12:04:06;;;;;;;7.93;3.15;;;;;;;14.84;54.07;99852.56;5106310;28;20024;-63
2021/05/18 12:06:35;;;;;;;3.30;2.60;;;;;;;15.03;53.77;99857.13;5106579;28;20045;-65
2021/05/18 12:09:05;;;;;;;4.18;3.10;;;;;;;15.14;53.49;99863.75;5106350;28;20495;-63
2021/05/18 12:11:30;;;;;;;4.50;2.47;;;;;;;15.17;53.59;99859.28;5106669;28;20035;-64
2021/05/18 12:13:55;;;;;;;3.95;2.63;;;;;;;15.15;52.92;99857.59;5106006;28;20028;-63
2021/05/18 12:16:23;;;;;;;4.78;3.00;;;;;;;15.10;53.32;99863.88;5106370;28;20023;-63
2021/05/18 12:18:52;;;;;;;3.88;2.80;;;;;;;15.07;53.50;99861.38;5105927;28;20027;-64
2021/05/18 12:21:20;;;;;;;3.33;2.35;;;;;;;15.06;52.95;99864.91;5106109;28;20077;-63
2021/05/18 12:24:18;;;;;;;3.72;2.70;;;;;;;15.14;52.74;99867.22;5106108;28;20020;-63
2021/05/18 12:27:04;;;;;;;4.45;2.55;;;;;;;15.41;52.57;99866.25;5121698;28;20034;-63
2021/05/18 12:29:36;;;;;;;3.97;2.53;;;;;;;15.36;51.46;99864.69;5105491;28;20040;-63
2021/05/18 12:32:28;;;;;;;4.60;2.97;;;;;;;15.18;52.58;99873.19;5105990;28;20027;-62
2021/05/18 12:34:56;;;;;;;5.00;3.08;;;;;;;15.09;53.64;99877.84;5105828;28;20419;-63
2021/05/18 12:37:39;;;;;;;6.03;3.33;;;;;;;15.03;53.40;99877.22;5106016;28;20089;-63
2021/05/18 12:40:25;;;;;;;6.75;3.58;;;;;;;14.99;53.69;99877.31;5105926;28;20028;-62
2021/05/18 12:42:51;;;;;;;4.57;3.72;;;;;;;15.05;53.10;99875.41;5105695;28;20016;-64
2021/05/18 12:45:17;;;;;;;5.30;3.55;;;;;;;15.04;53.91;99873.69;5105579;28;20023;-63
2021/05/18 12:47:43;;;;;;;5.50;3.85;;;;;;;15.06;53.38;99866.66;5105421;28;20028;-65
2021/05/18 12:50:13;;;;;;;6.15;3.53;;;;;;;15.15;53.46;99875.91;5105679;28;20032;-64
2021/05/18 12:52:52;;;;;;;5.43;3.08;;;;;;;15.29;53.01;99878.88;5105506;28;20071;-63
2021/05/18 12:55:27;;;;;;;5.40;3.53;;;;;;;15.32;52.36;99865.69;5105274;28;20020;-64
2021/05/18 12:58:01;;;;;;;6.00;3.88;;;;;;;15.02;52.94;99865.91;5105309;28;20034;-63
2021/05/18 13:00:40;;;;;;;5.13;3.70;;;;;;;14.76;53.67;99865.00;5105619;28;20020;-63
2021/05/18 13:03:17;;;;;;;5.03;3.72;;;;;;;14.30;54.32;99867.41;5104971;28;20097;-63
2021/05/18 13:05:45;;;;;;;4.80;3.20;;;;;;;14.02;55.38;99865.69;5105370;28;20076;-63
2021/05/18 13:08:21;;;;;;;6.45;3.85;;;;;;;13.85;55.85;99867.94;5105368;28;20028;-62
2021/05/18 13:10:53;;;;;;;5.20;3.55;;;;;;;13.80;55.64;99869.81;5105117;28;20028;-63
2021/05/18 13:13:20;;;;;;;5.97;3.20;;;;;;;13.62;56.25;99877.31;5104588;28;20016;-62
2021/05/18 13:15:47;;;;;;;6.57;3.33;;;;;;;13.53;56.50;99871.53;5105115;28;20035;-64
2021/05/18 13:18:13;;;;;;;5.30;3.47;;;;;;;13.46;56.53;99866.47;5104762;28;20027;-64
2021/05/18 13:20:43;;;;;;;4.70;2.85;;;;;;;13.39;56.41;99871.00;5105299;28;20051;-63
2021/05/18 13:23:15;;;;;;;4.18;2.78;;;;;;;13.37;57.13;99872.78;5120657;28;20099;-63
2021/05/18 13:28:25;;;;;;;6.60;3.83;;;;;;;13.16;57.41;99878.59;5105081;28;20035;-63
2021/05/18 13:30:50;;;;;;;5.10;3.45;;;;;;;13.08;57.66;99882.25;5104745;28;20023;-63
2021/05/18 13:33:16;;;;;;;5.53;3.65;;;;;;;12.99;58.22;99882.50;5104313;28;20024;-63
2021/05/18 13:36:22;;;;;;;4.65;2.88;;;;;;;12.94;59.21;99874.00;5120414;28;20032;-62
2021/05/18 13:38:47;;;;;;;3.58;2.80;;;;;;;12.96;59.41;99885.19;5104506;28;20028;-62
2021/05/18 13:41:13;;;;;;;5.40;3.47;;;;;;;13.02;59.41;99887.63;5120392;28;20031;-62
2021/05/18 13:43:38;;;;;;;5.03;3.45;;;;;;;13.05;59.23;99884.94;5104526;28;20099;-63
2021/05/18 13:46:04;;;;;;;7.72;3.70;;;;;;;13.11;59.08;99881.34;5104617;28;20081;-63
2021/05/18 13:48:30;;;;;;;6.32;3.65;;;;;;;13.13;59.31;99883.00;5104495;28;20039;-63
2021/05/18 13:50:56;;;;;;;6.18;3.92;;;;;;;13.14;59.09;99886.47;5103690;28;20092;-63
2021/05/18 13:53:22;;;;;;;4.88;3.80;;;;;;;13.16;59.50;99889.03;5104388;28;20365;-64
2021/05/18 13:55:48;;;;;;;5.47;3.88;;;;;;;13.11;59.23;99887.41;5104486;28;20204;-64
2021/05/18 13:58:13;;;;;;;5.40;3.97;;;;;;;13.06;59.06;99886.69;5104279;28;20077;-63
2021/05/18 14:00:39;;;;;;;5.80;3.90;;;;;;;13.04;59.39;99885.84;5104520;28;20024;-63
2021/05/18 14:03:04;;;;;;;5.50;3.63;;;;;;;13.04;59.62;99879.78;5104264;28;20026;-62
2021/05/18 14:05:29;;;;;;;5.03;3.60;;;;;;;13.04;59.50;99885.00;5104258;28;20020;-63
2021/05/18 14:08:27;;;;;;;6.45;4.28;;;;;;;13.07;59.47;99888.38;5104155;28;20034;-63
2021/05/18 14:11:03;;;;;;;4.97;3.47;;;;;;;13.00;59.23;99890.28;5104194;28;20034;-63
2021/05/18 14:13:31;;;;;;;6.93;4.10;;;;;;;12.96;59.23;99891.28;5104203;28;20028;-63
2021/05/18 14:15:57;;;;;;;6.05;4.13;;;;;;;12.85;59.46;99883.75;5103940;28;20399;-63
2021/05/18 14:18:22;;;;;;;6.78;4.40;;;;;;;12.82;59.95;99886.44;5103776;28;20560;-63
2021/05/18 14:20:49;;;;;;;6.43;4.00;;;;;;;12.82;60.01;99888.19;5119806;28;20039;-64
2021/05/18 14:23:20;;;;;;;6.72;4.03;;;;;;;12.81;59.98;99889.91;5103931;28;20038;-64
2021/05/18 14:25:45;;;;;;;7.80;4.55;;;;;;;12.86;59.77;99888.06;5104046;28;20023;-63
2021/05/18 14:28:11;;;;;;;6.95;4.38;;;;;;;12.80;59.54;99880.41;5103938;28;20028;-63
2021/05/18 14:30:36;;;;;;;7.63;4.20;;;;;;;12.73;59.81;99897.09;5103827;28;20024;-63
2021/05/18 14:33:01;;;;;;;5.35;3.92;;;;;;;12.67;60.04;99895.50;5103483;28;20032;-63
2021/05/18 14:35:28;;;;;;;7.45;3.83;;;;;;;12.62;60.76;99886.97;5103668;28;20024;-63
2021/05/18 14:56:40;;;;;;;10.40;4.97;;;;;;;12.57;61.23;99887.06;5103478;28;20024;-63
2021/05/18 14:59:06;;;;;;;5.38;3.75;;;;;;;12.56;61.38;99885.34;5103329;28;20031;-63
2021/05/18 15:01:31;;;;;;;5.00;3.50;;;;;;;12.56;61.48;99885.34;5103365;28;20028;-63
2021/05/18 15:03:57;;;;;;;5.88;4.00;;;;;;;12.53;61.65;99888.03;5107175;28;20023;-64
2021/05/18 15:06:22;;;;;;;4.90;4.07;;;;;;;12.54;61.75;99892.34;5107543;28;20016;-63
2021/05/18 15:08:47;;;;;;;4.22;3.20;;;;;;;12.54;61.92;99886.28;5107166;28;20032;-62
2021/05/18 15:11:12;;;;;;;4.85;3.90;;;;;;;12.56;61.85;99893.16;5107725;28;20448;-62
2021/05/18 15:13:38;;;;;;;6.68;3.75;;;;;;;12.51;62.50;99893.28;5106429;28;20103;-62
2021/05/18 15:16:03;;;;;;;5.80;4.38;;;;;;;12.53;62.36;99890.63;5107292;28;20028;-63
2021/05/18 15:18:31;;;;;;;8.57;4.35;;;;;;;12.51;62.58;99889.81;5107074;28;20089;-64
2021/05/18 15:20:56;;;;;;;5.57;4.45;;;;;;;12.48;62.90;99895.97;5122963;28;20069;-63
2021/05/18 15:23:22;;;;;;;6.32;4.82;;;;;;;12.59;62.63;99900.03;5107121;28;20101;-62
2021/05/18 15:25:47;;;;;;;7.65;3.95;;;;;;;12.58;62.63;99899.19;5107072;28;20028;-62
2021/05/18 15:28:13;;;;;;;7.88;4.95;;;;;;;12.56;62.72;99895.75;5107080;28;20077;-65
2021/05/18 15:30:38;;;;;;;11.15;4.47;;;;;;;12.49;62.89;99904.63;5106992;28;20361;-63
2021/05/18 15:33:04;;;;;;;6.05;4.05;;;;;;;12.42;63.23;99893.50;5106806;28;20020;-63
2021/05/18 15:35:29;;;;;;;8.40;5.05;;;;;;;12.48;63.34;99906.38;5106688;28;20028;-63
2021/05/18 15:37:54;;;;;;;7.40;4.53;;;;;;;12.49;63.26;99907.25;5106797;28;20709;-64
2021/05/18 15:40:20;;;;;;;9.73;6.55;;;;;;;12.44;62.87;99904.75;5107066;28;20039;-62
2021/05/18 15:42:45;;;;;;;11.82;5.88;;;;;;;12.37;63.39;99914.44;5106392;28;20110;-62
2021/05/18 15:45:12;;;;;;;7.20;4.72;;;;;;;12.24;63.76;99894.78;5122438;28;20024;-63
2021/05/18 15:47:37;;;;;;;7.30;5.18;;;;;;;12.19;64.46;99901.88;5106460;28;20032;-63
2021/05/18 15:50:05;;;;;;;9.90;5.50;;;;;;;12.21;64.51;99915.69;5106557;28;20015;-63
2021/05/18 15:52:30;;;;;;;9.75;5.55;;;;;;;12.19;64.61;99913.13;5105895;28;20362;-63
2021/05/18 15:54:55;;;;;;;10.05;5.50;;;;;;;12.17;64.76;99914.06;5105908;28;20035;-62
2021/05/18 15:57:21;;;;;;;9.85;6.93;;;;;;;12.15;64.68;99908.88;5106648;28;20020;-62
2021/05/18 15:59:49;;;;;;;9.25;5.78;;;;;;;12.13;65.29;99910.66;5106434;28;20060;-62
2021/05/18 16:02:15;;;;;;;7.90;5.28;;;;;;;12.17;65.21;99908.84;5106164;28;20476;-62
2021/05/18 16:04:41;;;;;;;8.07;5.50;;;;;;;12.19;65.08;99912.28;5121724;28;20038;-63
2021/05/18 16:07:08;;;;;;;9.98;5.88;;;;;;;12.25;64.92;99915.56;5106455;28;20024;-63
2021/05/18 16:09:34;;;;;;;9.07;5.60;;;;;;;12.25;64.68;99912.97;5105987;28;20306;-62
2021/05/18 16:11:59;;;;;;;11.07;5.90;;;;;;;12.18;64.99;99918.34;5106222;28;20058;-63
2021/05/18 16:14:24;;;;;;;10.00;6.20;;;;;;;12.13;65.03;99913.25;5105742;28;20055;-64
2021/05/18 16:16:51;;;;;;;9.57;5.72;;;;;;;12.12;65.19;99912.41;5105553;28;20020;-63
2021/05/18 16:19:16;;;;;;;8.30;5.47;;;;;;;12.19;65.17;99914.88;5106041;28;20089;-63
2021/05/18 16:21:41;;;;;;;10.07;4.85;;;;;;;12.25;65.11;99914.75;5105504;28;20032;-63
2021/05/18 16:24:07;;;;;;;8.68;5.82;;;;;;;12.33;65.23;99922.38;5105664;28;20016;-63
2021/05/18 16:26:33;;;;;;;15.05;5.57;;;;;;;12.36;64.89;99915.31;5105807;28;20016;-63
2021/05/18 16:29:00;;;;;;;5.88;4.72;;;;;;;12.32;64.85;99923.25;5104325;28;20020;-63
2021/05/18 16:31:28;;;;;;;9.38;5.70;;;;;;;12.31;65.16;99921.53;5105842;28;20138;-62
2021/05/18 16:33:54;;;;;;;7.28;4.90;;;;;;;12.21;65.32;99926.09;5105331;28;20028;-62
2021/05/18 16:36:20;;;;;;;7.45;5.30;;;;;;;12.16;65.65;99933.19;5105436;28;20420;-62
2021/05/18 16:38:45;;;;;;;8.82;6.00;;;;;;;12.11;65.70;99925.44;5105307;28;20456;-63
2021/05/18 16:41:11;;;;;;;9.73;4.43;;;;;;;12.14;66.00;99931.44;5105678;28;20024;-63